Time;durP1;ratioP1;P1;durP2;ratioP2;P2;SDS_P1;SDS_P2;PMS_P1;PMS_P2;Temp;Humidity;BMP_temperature;BMP_pressure;BME280_temperature;BME280_humidity;BME280_pressure;Samples;Min_cycle;Max_cycle;Signal;HPM_P1;HPM_P2
2023/11/06 00:01:03;;;;;;;8.00;5.60;;;;;;;11.28;100.00;97650.30;105891;1256;71184;-73
2023/11/06 00:03:31;;;;;;;6.20;5.30;;;;;;;11.28;100.00;97654.91;105798;1255;69454;-72
2023/11/06 00:05:58;;;;;;;7.20;5.20;;;;;;;11.27;100.00;97649.20;105609;1259;71469;-74
2023/11/06 00:08:26;;;;;;;8.30;5.40;;;;;;;11.28;100.00;97651.35;105538;1255;61741;-75
2023/11/06 00:10:53;;;;;;;8.50;5.80;;;;;;;11.27;100.00;97644.63;105591;1261;60530;-75
2023/11/06 00:13:21;;;;;;;7.20;4.80;;;;;;;11.26;100.00;97638.91;105861;1256;73853;-72
2023/11/06 00:15:48;;;;;;;6.70;5.10;;;;;;;11.26;100.00;97638.55;105605;1260;69041;-73
2023/11/06 00:18:16;;;;;;;7.50;5.30;;;;;;;11.26;100.00;97635.36;105673;1260;71900;-74
2023/11/06 00:20:44;;;;;;;6.50;5.50;;;;;;;11.26;100.00;97637.33;105649;1260;60400;-73
2023/11/06 00:23:12;;;;;;;6.20;5.40;;;;;;;11.27;100.00;97643.36;105702;1256;60538;-74
2023/11/06 00:25:39;;;;;;;7.80;5.50;;;;;;;11.27;100.00;97639.84;105610;1258;72688;-76
2023/11/06 00:28:07;;;;;;;7.20;4.50;;;;;;;11.28;100.00;97642.00;105665;1255;68896;-75
2023/11/06 00:30:34;;;;;;;5.20;4.70;;;;;;;11.29;100.00;97632.41;105766;1258;71110;-77
2023/11/06 00:33:02;;;;;;;6.10;4.50;;;;;;;11.31;100.00;97631.55;105945;1258;60618;-75
2023/11/06 00:35:29;;;;;;;5.50;4.60;;;;;;;11.32;100.00;97635.52;105892;1259;60494;-76
2023/11/06 00:37:57;;;;;;;5.20;4.50;;;;;;;11.31;100.00;97643.88;106002;1258;73788;-77
2023/11/06 00:40:24;;;;;;;7.30;4.80;;;;;;;11.28;100.00;97653.15;105683;1256;69934;-76
2023/11/06 00:42:52;;;;;;;8.90;5.00;;;;;;;11.27;100.00;97647.41;105647;1260;71507;-75
2023/11/06 00:45:19;;;;;;;6.30;4.40;;;;;;;11.27;100.00;97642.98;105645;1256;61716;-74
2023/11/06 00:47:47;;;;;;;7.10;4.90;;;;;;;11.27;100.00;97643.73;105774;1254;60491;-75
2023/11/06 00:50:14;;;;;;;6.30;4.10;;;;;;;11.27;100.00;97650.47;105696;1254;73785;-74
2023/11/06 00:52:42;;;;;;;6.40;4.40;;;;;;;11.25;100.00;97649.95;105733;1256;70142;-75
2023/11/06 00:55:10;;;;;;;6.10;4.50;;;;;;;11.26;100.00;97645.13;105647;1256;71522;-77
2023/11/06 00:57:37;;;;;;;7.70;4.50;;;;;;;11.26;100.00;97649.95;105636;1258;60479;-75
2023/11/06 01:00:10;;;;;;;8.70;6.10;;;;;;;11.23;100.00;97648.88;105664;1260;60436;-75
2023/11/06 01:02:37;;;;;;;8.10;5.70;;;;;;;11.22;100.00;97652.52;105767;1260;71399;-75
2023/11/06 01:05:05;;;;;;;5.00;4.50;;;;;;;11.22;100.00;97655.92;105776;1254;68726;-74
2023/11/06 01:07:33;;;;;;;6.30;4.60;;;;;;;11.25;100.00;97663.16;105726;1256;71463;-74
2023/11/06 01:10:01;;;;;;;10.30;4.80;;;;;;;11.27;100.00;97661.91;105680;1256;61702;-73
2023/11/06 01:12:28;;;;;;;6.00;4.60;;;;;;;11.29;100.00;97665.91;105510;1254;60537;-72
2023/11/06 01:14:57;;;;;;;6.70;4.30;;;;;;;11.29;100.00;97665.95;105550;1255;72215;-74
2023/11/06 01:17:25;;;;;;;5.00;4.00;;;;;;;11.29;99.99;97667.33;105757;1261;69417;-78
2023/11/06 01:19:53;;;;;;;6.20;4.00;;;;;;;11.31;100.00;97668.49;105684;1260;72774;-76
2023/11/06 01:22:21;;;;;;;4.30;3.70;;;;;;;11.33;100.00;97666.06;105879;1256;61696;-72
2023/11/06 01:25:05;;;;;;;5.50;4.50;;;;;;;11.33;99.80;97671.83;105802;1260;60512;-77
2023/11/06 01:27:33;;;;;;;6.80;4.20;;;;;;;11.33;99.04;97677.79;105768;1259;72647;-75
2023/11/06 01:30:00;;;;;;;5.60;4.20;;;;;;;11.34;99.07;97677.41;105724;1256;69503;-75
2023/11/06 01:32:28;;;;;;;7.30;4.80;;;;;;;11.35;99.09;97680.91;105873;1255;71445;-76
2023/11/06 01:34:56;;;;;;;8.00;5.40;;;;;;;11.36;98.50;97685.29;105815;1262;62334;-73
2023/11/06 01:37:26;;;;;;;9.30;5.20;;;;;;;11.36;97.95;97689.38;105716;1260;60409;-76
2023/11/06 01:39:53;;;;;;;7.00;5.10;;;;;;;11.36;97.93;97690.19;105692;1259;72614;-79
2023/11/06 01:42:38;;;;;;;8.70;5.40;;;;;;;11.37;97.87;97687.92;105736;1258;71144;-79
2023/11/06 01:45:09;;;;;;;7.30;5.00;;;;;;;11.37;97.51;97688.25;105700;1255;71893;-77
2023/11/06 01:47:36;;;;;;;7.10;5.30;;;;;;;11.37;97.05;97691.73;105712;1256;61776;-76
2023/11/06 01:50:05;;;;;;;6.50;4.40;;;;;;;11.35;96.47;97696.05;105757;1258;60283;-77
2023/11/06 01:52:33;;;;;;;7.90;4.20;;;;;;;11.33;95.86;97693.83;105810;1256;73083;-77
2023/11/06 01:55:00;;;;;;;8.80;4.80;;;;;;;11.32;96.27;97692.03;105782;1256;69958;-76
2023/11/06 01:57:28;;;;;;;4.20;3.60;;;;;;;11.31;96.55;97696.67;105698;1256;72500;-75
2023/11/06 01:59:56;;;;;;;6.30;4.10;;;;;;;11.30;96.66;97701.34;105600;1260;60485;-73
2023/11/06 02:02:23;;;;;;;5.60;4.30;;;;;;;11.29;95.91;97704.02;105753;1261;60353;-77
2023/11/06 02:04:51;;;;;;;9.10;4.50;;;;;;;11.28;95.86;97707.82;105790;1256;73945;-77
2023/11/06 02:07:19;;;;;;;4.50;3.80;;;;;;;11.28;96.24;97707.38;105965;1259;68856;-74
2023/11/06 02:09:46;;;;;;;5.90;4.60;;;;;;;11.25;95.68;97707.29;105541;1262;74505;-73
2023/11/06 02:12:14;;;;;;;5.60;4.40;;;;;;;11.20;95.32;97722.43;105693;1256;60466;-73
2023/11/06 02:14:55;;;;;;;5.10;3.90;;;;;;;11.18;95.15;97723.64;105729;1258;60450;-71
2023/11/06 02:17:25;;;;;;;4.70;3.80;;;;;;;11.15;95.50;97718.40;106533;1254;72629;-70
2023/11/06 02:19:53;;;;;;;4.60;3.50;;;;;;;11.14;95.35;97724.83;107005;1254;70966;-71
2023/11/06 02:22:22;;;;;;;5.20;3.70;;;;;;;11.12;95.33;97730.95;106014;1259;73109;-72
2023/11/06 02:24:50;;;;;;;4.60;3.40;;;;;;;11.08;95.17;97733.55;105625;1261;60507;-73
2023/11/06 02:27:18;;;;;;;4.80;3.50;;;;;;;11.05;95.75;97737.91;105520;1256;60432;-73
2023/11/06 02:29:46;;;;;;;5.50;3.10;;;;;;;11.00;95.93;97749.17;105758;1261;72516;-76
2023/11/06 02:32:13;;;;;;;3.60;2.90;;;;;;;10.97;96.46;97753.79;105732;1256;70227;-75
2023/11/06 02:34:41;;;;;;;4.50;3.10;;;;;;;10.95;96.64;97763.86;105803;1256;71796;-76
2023/11/06 02:37:09;;;;;;;5.40;3.10;;;;;;;10.92;96.57;97765.14;105817;1256;60963;-74
2023/11/06 02:39:37;;;;;;;3.90;3.50;;;;;;;10.90;96.81;97761.80;105608;1259;60392;-73
2023/11/06 02:42:05;;;;;;;6.30;3.50;;;;;;;10.87;96.72;97761.43;105674;1259;73776;-74
2023/11/06 02:44:32;;;;;;;5.40;3.60;;;;;;;10.83;97.09;97762.98;105462;1261;70407;-73
2023/11/06 02:47:00;;;;;;;5.50;2.70;;;;;;;10.80;97.52;97763.52;105763;1256;71511;-74
2023/11/06 02:49:27;;;;;;;3.90;3.50;;;;;;;10.78;97.45;97769.20;105700;1259;60448;-74
2023/11/06 02:51:55;;;;;;;4.70;3.50;;;;;;;10.74;97.59;97767.34;105674;1256;60407;-76
2023/11/06 02:54:22;;;;;;;5.00;3.70;;;;;;;10.70;98.00;97777.23;105693;1260;72499;-78
2023/11/06 02:56:50;;;;;;;5.50;3.60;;;;;;;10.67;98.28;97781.39;105825;1260;68946;-77
2023/11/06 02:59:18;;;;;;;4.60;4.00;;;;;;;10.63;98.41;97790.17;105627;1260;71361;-76
2023/11/06 03:01:46;;;;;;;7.80;4.10;;;;;;;10.58;98.60;97792.67;105897;1258;61730;-74
2023/11/06 03:04:13;;;;;;;4.10;3.60;;;;;;;10.54;99.17;97789.36;105969;1254;60575;-78
2023/11/06 03:06:41;;;;;;;5.60;4.10;;;;;;;10.51;99.25;97793.18;105716;1259;74436;-75
2023/11/06 03:09:09;;;;;;;7.40;4.70;;;;;;;10.49;99.46;97798.25;105866;1259;68296;-75
2023/11/06 03:11:36;;;;;;;6.20;4.80;;;;;;;10.48;99.70;97800.88;105755;1254;72800;-75
2023/11/06 03:14:05;;;;;;;7.00;4.70;;;;;;;10.45;99.76;97813.11;105849;1254;60831;-75
2023/11/06 03:16:34;;;;;;;5.40;4.30;;;;;;;10.42;99.41;97812.94;105839;1258;60428;-76
2023/11/06 03:19:05;;;;;;;4.30;3.60;;;;;;;10.40;99.57;97814.86;105899;1260;73416;-76
2023/11/06 03:21:33;;;;;;;7.40;4.30;;;;;;;10.39;99.65;97816.83;105870;1260;69113;-77
2023/11/06 03:24:02;;;;;;;4.80;4.20;;;;;;;10.38;99.81;97824.22;106060;1259;72768;-75
2023/11/06 03:26:30;;;;;;;5.20;4.20;;;;;;;10.36;99.77;97824.13;105877;1256;61893;-75
2023/11/06 03:28:58;;;;;;;7.10;4.00;;;;;;;10.34;99.89;97825.23;105766;1260;60433;-77
2023/11/06 03:31:25;;;;;;;4.90;4.40;;;;;;;10.32;99.80;97825.84;105786;1260;73029;-74
2023/11/06 03:33:53;;;;;;;5.10;4.10;;;;;;;10.30;99.56;97823.93;105728;1260;70098;-75
2023/11/06 03:36:20;;;;;;;4.90;3.70;;;;;;;10.28;99.48;97833.40;105704;1256;73524;-76
2023/11/06 03:38:49;;;;;;;5.20;4.00;;;;;;;10.25;99.40;97828.96;105732;1256;61677;-77
2023/11/06 03:41:17;;;;;;;5.00;4.30;;;;;;;10.24;99.44;97829.66;106055;1256;60494;-77
2023/11/06 03:43:48;;;;;;;5.50;3.80;;;;;;;10.21;99.80;97826.94;105708;1256;72303;-79
2023/11/06 03:46:16;;;;;;;5.40;4.20;;;;;;;10.21;99.89;97830.90;105909;1259;70339;-78
2023/11/06 03:48:44;;;;;;;5.70;3.80;;;;;;;10.21;99.95;97838.05;105733;1262;71449;-78
2023/11/06 03:51:11;;;;;;;9.50;6.80;;;;;;;10.20;99.61;97834.95;105766;1260;60459;-78
2023/11/06 03:53:39;;;;;;;5.50;4.10;;;;;;;10.20;99.60;97844.27;105768;1254;60481;-76
2023/11/06 03:56:07;;;;;;;5.70;4.10;;;;;;;10.19;99.60;97841.82;105746;1254;74206;-76
2023/11/06 03:58:35;;;;;;;5.50;4.10;;;;;;;10.17;98.90;97846.80;105848;1259;69551;-76
2023/11/06 04:01:03;;;;;;;6.90;4.10;;;;;;;10.13;99.06;97841.03;105696;1256;73585;-75
2023/11/06 04:03:31;;;;;;;4.00;3.60;;;;;;;10.10;99.20;97851.45;105880;1256;60431;-77
2023/11/06 04:06:00;;;;;;;5.40;3.30;;;;;;;10.05;98.69;97855.83;105864;1254;60506;-75
2023/11/06 04:08:27;;;;;;;5.80;3.70;;;;;;;10.00;98.43;97862.51;105786;1254;72531;-78
2023/11/06 04:10:55;;;;;;;4.40;3.90;;;;;;;9.96;98.59;97863.91;105924;1257;70485;-76
2023/11/06 04:13:24;;;;;;;6.30;4.10;;;;;;;9.93;98.78;97869.44;106033;1255;70369;-74
2023/11/06 04:15:51;;;;;;;4.10;3.30;;;;;;;9.89;98.11;97876.60;106911;1260;60463;-76
2023/11/06 04:18:19;;;;;;;5.00;3.70;;;;;;;9.86;98.44;97881.38;105861;1254;60699;-78
2023/11/06 04:20:46;;;;;;;18.90;15.00;;;;;;;9.84;98.52;97887.30;105644;1261;72638;-73
2023/11/06 04:23:14;;;;;;;6.40;4.60;;;;;;;9.82;98.52;97889.34;105709;1258;71739;-78
2023/11/06 04:25:47;;;;;;;5.10;3.40;;;;;;;9.80;98.63;97898.93;105736;1257;72713;-77
2023/11/06 04:28:15;;;;;;;;;;;;;;;9.79;98.78;97900.33;105933;1260;60479;-76
2023/11/06 04:30:43;;;;;;;6.00;3.60;;;;;;;9.77;99.06;97904.53;106279;1254;60417;-75
2023/11/06 04:33:11;;;;;;;4.10;3.40;;;;;;;9.74;98.33;97915.19;106413;1259;73894;-75
2023/11/06 04:35:38;;;;;;;5.30;3.90;;;;;;;9.72;98.55;97921.42;107101;1258;69997;-76
2023/11/06 04:38:06;;;;;;;4.60;3.10;;;;;;;9.71;98.23;97928.48;107452;1259;71795;-75
2023/11/06 04:40:33;;;;;;;6.00;3.40;;;;;;;9.70;97.88;97935.83;107417;1257;61987;-74
2023/11/06 04:43:01;;;;;;;4.40;3.50;;;;;;;9.69;97.76;97940.58;107509;1257;60959;-77
2023/11/06 04:45:28;;;;;;;6.20;3.30;;;;;;;9.67;97.43;97941.55;107657;1260;72853;-77
2023/11/06 04:47:56;;;;;;;4.80;3.20;;;;;;;9.64;97.35;97943.27;107854;1256;68971;-77
2023/11/06 04:50:24;;;;;;;4.50;3.70;;;;;;;9.62;97.57;97954.20;107925;1259;71410;-79
2023/11/06 04:52:52;;;;;;;3.50;3.10;;;;;;;9.60;97.33;97960.85;107569;1256;60566;-78
2023/11/06 04:55:20;;;;;;;3.80;2.90;;;;;;;9.60;97.38;97960.56;108455;1256;60390;-78
2023/11/06 04:57:48;;;;;;;5.40;3.50;;;;;;;9.59;96.82;97962.98;107821;1256;72404;-78
2023/11/06 05:00:16;;;;;;;5.80;4.50;;;;;;;9.58;97.18;97971.05;107524;1256;68999;-75
2023/11/06 05:02:44;;;;;;;3.30;3.00;;;;;;;9.54;96.80;97983.52;107539;1256;71627;-80
2023/11/06 05:05:11;;;;;;;4.50;3.40;;;;;;;9.53;96.82;97986.84;108778;1256;60393;-81
2023/11/06 05:07:40;;;;;;;4.80;3.50;;;;;;;9.53;97.07;97990.51;108855;1254;60264;-81
2023/11/06 05:10:08;;;;;;;5.70;3.60;;;;;;;9.51;96.98;97995.85;109097;1258;72578;-80
2023/11/06 05:12:38;;;;;;;3.90;3.40;;;;;;;9.50;96.67;98000.08;107550;1261;68962;-77
2023/11/06 05:15:09;;;;;;;4.50;4.10;;;;;;;9.48;96.66;97999.40;107941;1254;71196;-75
2023/11/06 05:17:36;;;;;;;5.20;3.70;;;;;;;9.46;96.79;97992.58;107764;1254;63819;-76
2023/11/06 05:20:05;;;;;;;5.60;4.10;;;;;;;9.48;96.45;98006.33;107188;1259;60409;-75
2023/11/06 05:22:33;;;;;;;4.60;3.80;;;;;;;9.49;96.09;98015.45;107186;1254;74103;-76
2023/11/06 05:25:00;;;;;;;4.60;3.60;;;;;;;9.52;96.24;98013.67;107112;1255;70166;-76
2023/11/06 05:27:28;;;;;;;5.90;4.40;;;;;;;9.53;95.79;98020.11;107799;1256;75072;-79
2023/11/06 05:29:55;;;;;;;4.90;3.60;;;;;;;9.53;95.09;98026.27;107793;1254;60418;-79
2023/11/06 05:32:23;;;;;;;4.50;3.60;;;;;;;9.55;94.87;98020.20;107689;1257;60520;-77
2023/11/06 05:34:51;;;;;;;4.40;3.20;;;;;;;9.56;94.34;98029.58;107197;1260;73832;-79
2023/11/06 05:37:19;;;;;;;4.80;3.20;;;;;;;9.57;94.05;98035.69;107504;1258;68939;-75
2023/11/06 05:39:46;;;;;;;5.10;3.20;;;;;;;9.57;93.85;98042.17;108122;1258;72694;-77
2023/11/06 05:42:14;;;;;;;12.90;7.80;;;;;;;9.59;93.53;98038.80;107015;1254;61328;-75
2023/11/06 05:44:43;;;;;;;6.30;4.30;;;;;;;9.60;93.76;98035.77;107101;1260;60352;-74
2023/11/06 05:47:11;;;;;;;3.80;3.40;;;;;;;9.63;93.67;98046.05;107188;1258;74047;-74
2023/11/06 05:49:41;;;;;;;6.10;3.50;;;;;;;9.62;93.67;98058.13;106651;1261;69180;-76
2023/11/06 05:52:10;;;;;;;4.80;3.20;;;;;;;9.62;93.65;98066.77;106904;1254;71643;-75
2023/11/06 05:54:39;;;;;;;7.00;4.10;;;;;;;9.65;93.00;98069.63;106872;1260;60604;-76
2023/11/06 05:57:06;;;;;;;4.40;3.10;;;;;;;9.66;92.70;98071.21;106723;1253;60541;-75
2023/11/06 05:59:34;;;;;;;4.50;3.40;;;;;;;9.68;92.20;98074.08;106418;1256;72613;-75
2023/11/06 06:02:01;;;;;;;4.50;3.40;;;;;;;9.68;92.04;98080.20;108622;1258;70124;-82
2023/11/06 06:04:30;;;;;;;4.60;3.30;;;;;;;9.68;92.22;98075.19;109183;1254;71470;-82
2023/11/06 06:06:58;;;;;;;6.10;3.80;;;;;;;9.72;91.78;98078.94;108533;1256;60517;-81
2023/11/06 06:09:26;;;;;;;4.80;2.80;;;;;;;9.75;91.63;98079.84;107824;1258;60402;-83
2023/11/06 06:11:54;;;;;;;4.90;3.50;;;;;;;9.79;91.52;98084.13;108255;1257;72246;-83
2023/11/06 06:14:22;;;;;;;7.20;3.30;;;;;;;9.76;90.86;98084.90;108116;1260;69123;-81
2023/11/06 06:16:49;;;;;;;4.10;3.20;;;;;;;9.79;91.14;98085.59;107712;1257;71085;-81
2023/11/06 06:19:18;;;;;;;5.50;3.30;;;;;;;9.83;90.72;98089.15;107419;1260;60406;-81
2023/11/06 06:21:46;;;;;;;7.80;3.60;;;;;;;9.87;89.99;98097.14;107573;1257;60346;-80
2023/11/06 06:24:16;;;;;;;4.20;3.20;;;;;;;9.91;90.02;98102.04;107602;1260;72550;-79
2023/11/06 06:26:44;;;;;;;3.80;3.30;;;;;;;9.95;89.63;98107.95;107759;1254;67909;-82
2023/11/06 06:29:11;;;;;;;3.70;2.80;;;;;;;9.97;89.18;98102.61;108248;1254;71440;-81
2023/11/06 06:31:39;;;;;;;4.40;3.20;;;;;;;9.98;88.69;98112.45;108685;1254;59183;-84
2023/11/06 06:34:07;;;;;;;5.60;3.50;;;;;;;9.98;88.56;98118.78;107750;1259;60034;-84
2023/11/06 06:36:34;;;;;;;3.70;2.80;;;;;;;10.02;88.06;98116.33;108006;1254;72546;-82
2023/11/06 06:39:05;;;;;;;3.70;2.60;;;;;;;10.08;88.20;98114.49;107702;1258;67855;-82
2023/11/06 06:41:33;;;;;;;3.80;2.80;;;;;;;10.10;87.78;98115.67;107490;1257;71364;-81
2023/11/06 06:44:00;;;;;;;3.30;2.60;;;;;;;10.11;88.46;98118.36;107916;1256;60720;-80
2023/11/06 06:46:28;;;;;;;3.10;2.70;;;;;;;10.19;87.83;98115.99;107888;1256;59334;-82
2023/11/06 06:48:57;;;;;;;5.20;3.20;;;;;;;10.29;87.84;98112.08;108541;1255;71734;-81
2023/11/06 06:51:25;;;;;;;3.10;2.80;;;;;;;10.36;87.24;98109.88;107905;1257;68718;-81
2023/11/06 06:53:52;;;;;;;5.00;3.10;;;;;;;10.47;86.38;98112.19;106758;1260;71420;-81
2023/11/06 06:56:20;;;;;;;4.30;2.80;;;;;;;10.51;85.98;98112.89;106158;1256;60463;-79
2023/11/06 06:58:48;;;;;;;4.70;3.20;;;;;;;10.58;85.78;98114.73;106005;1262;60576;-82
2023/11/06 07:01:16;;;;;;;4.40;3.20;;;;;;;10.65;84.99;98109.65;106199;1256;72801;-81
2023/11/06 07:03:44;;;;;;;3.20;2.70;;;;;;;10.66;85.13;98113.13;105960;1254;69554;-80
2023/11/06 07:06:14;;;;;;;5.00;2.50;;;;;;;10.73;84.50;98114.58;105863;1261;71842;-81
2023/11/06 07:08:42;;;;;;;3.80;2.30;;;;;;;10.82;84.73;98117.63;106020;1258;60412;-83
2023/11/06 07:11:10;;;;;;;3.70;2.60;;;;;;;10.88;84.05;98120.01;106011;1255;60633;-79
2023/11/06 07:13:38;;;;;;;3.70;2.90;;;;;;;10.95;82.89;98125.47;106296;1264;73841;-79
2023/11/06 07:16:06;;;;;;;4.20;2.60;;;;;;;10.94;82.64;98133.04;106539;1254;70102;-81
2023/11/06 07:18:33;;;;;;;3.40;2.30;;;;;;;11.01;82.45;98135.98;106357;1259;74641;-81
2023/11/06 07:21:01;;;;;;;4.80;2.10;;;;;;;11.14;82.08;98139.66;107010;1259;60514;-81
2023/11/06 07:23:29;;;;;;;3.90;2.50;;;;;;;11.21;81.73;98141.39;107461;1259;60439;-81
2023/11/06 07:25:56;;;;;;;2.20;1.80;;;;;;;11.30;80.13;98148.98;107333;1259;72638;-80
2023/11/06 07:28:24;;;;;;;2.40;2.20;;;;;;;11.42;80.14;98147.88;107312;1259;70007;-77
2023/11/06 07:30:51;;;;;;;3.30;2.20;;;;;;;11.47;79.50;98152.43;107715;1254;71411;-82
2023/11/06 07:33:19;;;;;;;4.00;2.10;;;;;;;11.52;78.49;98161.98;107623;1258;60935;-81
2023/11/06 07:35:46;;;;;;;2.20;1.80;;;;;;;11.68;78.14;98173.48;106855;1257;60548;-81
2023/11/06 07:38:14;;;;;;;2.50;2.10;;;;;;;11.77;78.19;98167.27;107183;1257;74721;-81
2023/11/06 07:40:42;;;;;;;1.80;1.70;;;;;;;11.83;77.75;98171.39;106460;1260;69396;-79
2023/11/06 07:43:10;;;;;;;2.60;1.70;;;;;;;11.90;76.62;98163.56;105825;1261;72913;-80
2023/11/06 07:45:38;;;;;;;1.80;1.70;;;;;;;12.03;76.59;98171.98;105806;1258;60413;-79
2023/11/06 07:48:05;;;;;;;5.10;2.30;;;;;;;12.07;76.74;98172.28;105806;1260;60300;-81
2023/11/06 07:50:35;;;;;;;2.70;1.90;;;;;;;12.13;76.39;98179.96;105847;1259;73807;-79
2023/11/06 07:53:03;;;;;;;2.90;1.90;;;;;;;12.27;75.37;98184.27;105734;1261;69989;-81
2023/11/06 07:55:31;;;;;;;2.20;1.80;;;;;;;12.35;75.32;98186.21;105833;1260;73776;-76
2023/11/06 07:58:00;;;;;;;2.60;1.90;;;;;;;12.38;75.34;98184.20;105811;1260;60550;-79
2023/11/06 08:00:27;;;;;;;3.70;1.80;;;;;;;12.46;74.98;98188.60;106006;1254;61286;-78
2023/11/06 08:03:13;;;;;;;2.60;2.00;;;;;;;12.62;74.35;98190.54;106113;1253;72513;-80
2023/11/06 08:05:40;;;;;;;5.10;2.30;;;;;;;12.68;73.85;98187.25;105663;1259;70380;-81
2023/11/06 08:08:09;;;;;;;2.40;2.10;;;;;;;12.68;72.68;98191.20;105662;1263;71399;-81
2023/11/06 08:10:37;;;;;;;4.40;1.90;;;;;;;12.74;73.47;98196.45;105885;1260;60310;-78
2023/11/06 08:13:05;;;;;;;2.70;2.00;;;;;;;12.91;72.86;98208.21;105718;1254;424671;-81
2023/11/06 08:17:07;;;;;;;3.20;1.90;;;;;;;13.10;72.57;98211.21;102743;1295;600653;-80
2023/11/06 08:19:36;;;;;;;2.70;2.00;;;;;;;13.17;71.10;98212.81;105306;1267;59769;-79
2023/11/06 08:22:03;;;;;;;2.10;1.90;;;;;;;13.26;70.32;98222.45;105934;1257;60441;-79
2023/11/06 08:24:30;;;;;;;4.70;2.10;;;;;;;13.29;70.51;98215.59;107228;1255;72390;-78
2023/11/06 08:26:57;;;;;;;3.50;2.60;;;;;;;13.29;70.57;98222.88;105849;1254;70342;-80
2023/11/06 08:29:24;;;;;;;3.10;2.50;;;;;;;13.29;70.33;98220.73;105761;1254;257274;-78
2023/11/06 08:31:50;;;;;;;2.60;1.90;;;;;;;13.30;70.45;98226.32;106085;1256;59355;-76
2023/11/06 08:34:21;;;;;;;2.90;1.60;;;;;;;13.38;69.72;98221.02;105967;1254;60335;-79
2023/11/06 08:36:47;;;;;;;1.90;1.70;;;;;;;13.42;69.79;98223.15;107100;1254;71097;-77
2023/11/06 08:39:17;;;;;;;3.00;2.40;;;;;;;13.45;70.54;98228.67;107482;1254;70970;-79
2023/11/06 08:41:44;;;;;;;2.40;2.00;;;;;;;13.48;69.89;98236.34;106121;1253;72887;-80
2023/11/06 08:44:11;;;;;;;4.20;1.90;;;;;;;13.50;69.99;98240.66;106069;1254;59724;-80
2023/11/06 08:46:39;;;;;;;3.10;1.80;;;;;;;13.57;70.32;98241.45;106385;1257;60221;-80
2023/11/06 08:49:07;;;;;;;6.60;2.10;;;;;;;13.78;69.73;98242.66;106489;1253;73098;-80
2023/11/06 08:51:33;;;;;;;2.20;1.80;;;;;;;13.98;70.07;98241.23;106278;1252;70347;-79
2023/11/06 08:54:00;;;;;;;1.70;1.60;;;;;;;14.29;69.19;98244.83;106059;1257;72677;-79
2023/11/06 08:56:29;;;;;;;1.80;1.70;;;;;;;14.59;67.42;98252.50;106037;1254;60443;-76
2023/11/06 08:58:56;;;;;;;2.20;2.00;;;;;;;14.85;66.24;98252.54;105989;1254;60189;-76
2023/11/06 09:01:23;;;;;;;2.40;1.70;;;;;;;15.12;65.60;98249.35;106188;1256;72696;-77
2023/11/06 09:03:50;;;;;;;2.50;1.90;;;;;;;15.47;64.89;98254.25;106234;1253;59713;-77
2023/11/06 09:06:19;;;;;;;2.10;1.90;;;;;;;15.83;63.77;98252.10;106777;1253;72667;-78
2023/11/06 09:08:47;;;;;;;1.90;1.70;;;;;;;16.21;62.22;98249.91;106466;1254;60260;-78
2023/11/06 09:11:15;;;;;;;3.80;2.20;;;;;;;16.52;60.57;98252.48;106405;1253;60375;-78
2023/11/06 09:13:43;;;;;;;3.40;2.10;;;;;;;16.63;60.30;98252.11;106428;1254;72207;-78
2023/11/06 09:16:11;;;;;;;2.80;2.00;;;;;;;16.75;60.55;98250.77;106388;1253;70700;-77
2023/11/06 09:18:39;;;;;;;4.00;2.10;;;;;;;16.98;59.70;98254.56;106100;1254;72678;-77
2023/11/06 09:21:12;;;;;;;3.80;2.20;;;;;;;17.09;59.47;98252.73;106180;1253;60343;-77
2023/11/06 09:23:40;;;;;;;2.80;2.10;;;;;;;17.00;58.63;98252.54;106330;1254;59560;-79
2023/11/06 09:26:09;;;;;;;2.60;2.20;;;;;;;16.79;58.99;98252.05;106267;1254;72411;-77
2023/11/06 09:28:38;;;;;;;2.60;2.30;;;;;;;16.53;59.06;98260.48;106154;1253;70515;-77
2023/11/06 09:31:05;;;;;;;3.20;1.80;;;;;;;16.23;59.53;98255.78;106296;1254;74050;-76
2023/11/06 09:33:33;;;;;;;3.30;2.00;;;;;;;16.18;60.20;98257.84;106367;1254;59777;-75
2023/11/06 09:36:02;;;;;;;1.70;1.60;;;;;;;16.37;59.73;98265.02;106439;1254;59696;-76
2023/11/06 09:38:29;;;;;;;4.00;1.90;;;;;;;16.70;59.18;98267.50;106304;1259;72538;-76
2023/11/06 09:40:56;;;;;;;3.40;1.90;;;;;;;17.06;57.85;98270.08;106254;1257;69015;-79
2023/11/06 09:43:24;;;;;;;1.80;1.60;;;;;;;17.47;57.60;98278.25;106073;1259;72851;-78
2023/11/06 09:45:52;;;;;;;2.00;1.70;;;;;;;17.48;56.02;98280.90;106342;1253;60181;-78
2023/11/06 09:48:20;;;;;;;2.00;1.80;;;;;;;17.29;57.04;98266.48;106253;1253;62446;-79
2023/11/06 09:50:48;;;;;;;2.50;1.70;;;;;;;17.14;57.05;98273.55;106186;1256;71744;-76
2023/11/06 09:53:16;;;;;;;1.90;1.60;;;;;;;16.95;56.95;98272.48;106122;1254;70623;-76
2023/11/06 09:55:45;;;;;;;3.50;1.50;;;;;;;16.71;57.93;98268.91;106309;1254;70415;-76
2023/11/06 09:58:12;;;;;;;2.70;1.60;;;;;;;16.54;58.44;98282.59;106364;1254;60079;-77
2023/11/06 10:00:39;;;;;;;2.20;1.70;;;;;;;16.36;58.75;98298.19;106180;1254;60319;-77
2023/11/06 10:03:07;;;;;;;2.30;1.60;;;;;;;16.19;59.04;98306.92;106208;1257;74085;-77
2023/11/06 10:05:35;;;;;;;1.50;1.40;;;;;;;16.03;59.42;98307.65;106533;1254;68887;-80
2023/11/06 10:08:04;;;;;;;2.70;1.40;;;;;;;15.77;59.74;98317.31;106547;1253;72660;-79
2023/11/06 10:10:40;;;;;;;1.60;1.40;;;;;;;15.39;60.60;98316.48;106296;1258;60201;-80
2023/11/06 10:13:12;;;;;;;1.90;1.70;;;;;;;15.01;61.71;98326.48;106450;1256;59511;-80
2023/11/06 10:15:40;;;;;;;2.50;2.30;;;;;;;14.66;62.68;98319.91;106447;1254;72083;-85
2023/11/06 10:18:27;;;;;;;2.70;1.90;;;;;;;14.38;63.79;98327.35;106715;1253;69762;-79
2023/11/06 10:20:55;;;;;;;4.90;2.50;;;;;;;14.07;64.68;98340.94;106225;1257;71577;-79
2023/11/06 10:23:26;;;;;;;2.70;1.90;;;;;;;13.86;65.60;98337.21;106034;1254;60487;-81
2023/11/06 10:25:54;;;;;;;3.00;2.00;;;;;;;13.71;66.37;98351.63;105979;1259;59512;-80
2023/11/06 10:28:22;;;;;;;2.80;2.30;;;;;;;13.70;66.75;98348.13;106188;1258;73071;-81
2023/11/06 10:30:54;;;;;;;2.70;2.10;;;;;;;13.90;66.85;98341.39;106135;1256;69268;-82
2023/11/06 10:33:23;;;;;;;2.90;2.10;;;;;;;14.29;65.73;98349.66;106377;1253;71198;-82
2023/11/06 10:35:51;;;;;;;2.50;2.10;;;;;;;14.87;64.39;98351.23;106121;1253;60144;-84
2023/11/06 10:38:28;;;;;;;4.00;1.90;;;;;;;15.49;63.20;98343.14;106352;1257;60605;-77
2023/11/06 10:41:24;;;;;;;1.90;1.80;;;;;;;15.82;62.08;98343.23;106428;1254;73141;-81
2023/11/06 10:44:01;;;;;;;2.30;1.90;;;;;;;16.22;61.24;98345.36;107406;1253;69288;-80
2023/11/06 10:46:31;;;;;;;2.00;1.80;;;;;;;16.90;59.20;98346.23;107499;1253;71375;-80
2023/11/06 10:49:07;;;;;;;2.40;1.80;;;;;;;17.43;57.43;98347.99;106804;1253;62705;-84
2023/11/06 10:51:38;;;;;;;3.50;1.80;;;;;;;17.51;56.55;98353.59;106391;1254;60471;-84
2023/11/06 10:54:05;;;;;;;2.60;1.70;;;;;;;17.32;57.09;98351.54;106729;1253;72886;-84
2023/11/06 10:56:32;;;;;;;1.90;1.70;;;;;;;17.23;57.39;98352.05;106482;1253;69015;-84
2023/11/06 10:58:59;;;;;;;2.60;1.50;;;;;;;17.36;57.16;98361.42;107024;1253;72254;-85
2023/11/06 11:01:29;;;;;;;3.20;1.50;;;;;;;17.60;56.50;98359.25;106856;1254;59742;-80
2023/11/06 11:03:56;;;;;;;1.80;1.40;;;;;;;17.71;55.63;98362.29;106282;1254;60332;-81
2023/11/06 11:06:24;;;;;;;2.30;1.70;;;;;;;17.70;55.23;98362.97;106287;1253;71009;-88
2023/11/06 11:08:53;;;;;;;1.70;1.50;;;;;;;17.63;55.36;98367.77;106421;1254;70340;-84
2023/11/06 11:11:19;;;;;;;1.60;1.50;;;;;;;17.35;55.53;98378.86;106284;1253;72815;-83
2023/11/06 11:13:47;;;;;;;1.80;1.60;;;;;;;16.93;55.95;98380.64;106192;1254;61824;-80
2023/11/06 11:16:49;;;;;;;2.20;1.40;;;;;;;16.43;56.95;98381.89;105924;1259;60395;-77
2023/11/06 11:19:22;;;;;;;2.30;1.70;;;;;;;15.88;58.21;98383.57;105889;1254;73144;-75
2023/11/06 11:22:08;;;;;;;1.40;1.30;;;;;;;15.54;59.36;98381.48;105927;1254;70361;-75
2023/11/06 11:24:46;;;;;;;1.60;1.50;;;;;;;15.26;60.03;98392.56;105988;1259;71282;-78
2023/11/06 11:27:15;;;;;;;1.80;1.60;;;;;;;15.03;60.76;98394.30;105876;1253;59614;-75
2023/11/06 11:29:56;;;;;;;2.00;1.60;;;;;;;14.83;61.72;98399.74;105820;1257;59784;-75
2023/11/06 11:32:47;;;;;;;3.30;1.70;;;;;;;14.70;62.08;98398.51;105870;1254;74323;-75
2023/11/06 11:35:17;;;;;;;2.60;1.70;;;;;;;14.59;62.24;98402.09;105858;1254;69192;-76